x

9439040 - Astoria, Or (asto3) Weather Station

12:54 - Thu 25th May 2017 All times are PDT. -7 hours from GMT.

  • Wind
    2mph, 3mph gusts
  • Sea Temp 58°f
  • Aire Temp 51°f
  • Sea Pressure 1013.8mb
  • 9439040 - Astoria, Or
  • 9439040 - Astoria, Or

More Historic Weather Station data

Upgrade to MSW Pro to gain access to the past 30 days of data for over 8000 Wavebouys and Weather Stations around the globe.

Join Pro

Comparision Forecast

View Surf forecast
   
jue 05/25 12:54 2 3 mph 1013.8mb 58f 51f
12:48 5 6 mph 1013.9mb 58f 51f
12:42 3 7 mph 1013.9mb 58f 51f
12:36 5 7 mph 1014mb 58f 51f
12:30 3 5 mph 1014mb 58f 51f
12:24 3 3 mph 1014.1mb 58f 51f
12:18 2 5 mph 1014.1mb 58f 51f
12:12 3 6 mph 1014.1mb 58f 51f
12:06 2 5 mph 1014.2mb 58f 51f
12:00 3 6 mph 1014.2mb 58f 51f
mié 05/24 11:54 6 8 mph 1014.2mb 58f 52f
11:48 3 5 mph 1014.2mb 58f 52f
11:42 3 6 mph 1014.3mb 58f 52f
11:36 5 6 mph 1014.3mb 58f 52f
11:30 6 6 mph 1014.4mb 58f 52f
11:24 5 7 mph 1014.4mb 58f 52f
11:18 6 8 mph 1014.5mb 58f 52f
11:12 6 7 mph 1014.5mb 58f 52f
11:06 7 7 mph 1014.6mb 58f 52f
11:00 6 7 mph 1014.7mb 58f 52f
10:54 6 8 mph 1014.6mb 58f 52f
10:48 6 8 mph 1014.7mb 58f 52f
10:42 5 6 mph 1014.8mb 58f 52f
10:36 5 6 mph 1014.8mb 58f 52f
10:30 6 6 mph 1014.7mb 58f 52f
10:24 6 8 mph 1014.7mb 58f 52f
10:18 6 8 mph 1014.8mb 58f 52f
10:12 7 9 mph 1014.8mb 58f 52f
10:06 8 10 mph 1014.9mb 58f 52f
10:00 9 10 mph 1014.9mb 58f 52f
9:54 10 11 mph 1014.9mb 58f 53f
9:48 10 11 mph 1014.8mb 58f 53f
9:42 10 13 mph 1014.8mb 58f 53f
9:36 10 13 mph 1014.8mb 58f 53f
9:30 9 13 mph 1014.8mb 58f 53f
9:24 13 15 mph 1014.8mb 58f 53f
9:18 10 14 mph 1014.7mb 58f 53f
9:12 9 13 mph 1014.6mb 58f 53f
9:06 8 13 mph 1014.6mb 58f 53f
9:00 8 11 mph 1014.6mb 58f 53f
8:54 9 10 mph 1014.6mb 58f 53f
8:48 8 13 mph 1014.7mb 58f 53f
8:42 10 13 mph 1014.7mb 58f 53f
8:36 8 9 mph 1014.7mb 58f 54f
8:30 7 9 mph 1014.8mb 58f 54f
8:24 5 7 mph 1014.8mb 58f 54f
8:18 6 7 mph 1014.8mb 58f 53f
8:12 6 8 mph 1014.9mb 58f 54f
8:06 5 7 mph 1014.9mb 58f 54f
8:00 6 8 mph 1015mb 58f 53f
7:54 7 9 mph 1015mb 58f 54f
7:48 5 7 mph 1015mb 58f 54f
7:42 6 8 mph 1015mb 58f 54f
7:36 8 10 mph 1015mb 58f 54f
7:30 6 9 mph 1015mb 58f 54f
7:24 6 9 mph 1015mb 58f 54f
7:18 7 10 mph 1015.1mb 58f 54f
7:12 7 11 mph 1015.1mb 58f 54f
7:06 8 11 mph 1015.1mb 58f 54f
7:00 9 14 mph 1015.1mb 58f 54f
6:54 8 13 mph 1015.2mb 58f 54f
6:48 8 11 mph 1015.2mb 58f 54f
6:42 8 11 mph 1015.2mb 58f 54f
6:36 8 9 mph 1015.3mb 58f 54f
6:30 7 10 mph 1015.4mb 58f 54f
6:24 8 11 mph 1015.4mb 58f 54f
6:18 7 10 mph 1015.5mb 58f 54f
6:12 10 13 mph 1015.6mb 58f 54f
6:06 10 15 mph 1015.7mb 58f 54f
6:00 9 14 mph 1015.8mb 58f 54f
5:48 10 14 mph 1015.9mb 58f 53f
5:42 8 14 mph 1016.1mb 58f 53f
5:36 11 15 mph 1016.2mb 58f 53f
5:30 10 16 mph 1016.2mb 58f 53f
5:24 13 20 mph 1016.3mb 58f 53f
5:18 15 17 mph 1016.2mb 58f 53f
5:12 14 16 mph 1016.2mb 58f 54f
5:06 8 11 mph 1016.2mb 58f 54f
5:00 11 15 mph 1016.3mb 58f 54f
4:54 14 17 mph 1016.2mb 58f 54f
4:48 13 17 mph 1016.4mb 58f 54f
4:42 13 17 mph 1016.4mb 58f 54f
4:36 15 18 mph 1016.5mb 58f 53f
4:30 10 18 mph 1016.6mb 59f 54f
4:24 14 17 mph 1016.6mb 59f 54f
4:18 15 18 mph 1016.7mb 59f 54f
4:12 14 17 mph 1016.8mb 59f 54f
4:06 14 16 mph 1016.7mb 59f 54f
4:00 15 17 mph 1016.8mb 59f 54f
3:54 14 18 mph 1016.8mb 59f 54f
3:48 14 17 mph 1016.9mb 59f 54f
3:42 13 20 mph 1016.9mb 59f 54f
3:36 14 18 mph 1017mb 58f 54f
3:30 13 16 mph 1017.1mb 58f 55f
3:24 14 20 mph 1017mb 58f 55f
3:18 11 18 mph 1017.2mb 58f 54f
3:12 13 16 mph 1017.3mb 58f 55f
3:06 8 11 mph 1017.2mb 58f 55f
3:00 9 11 mph 1017.3mb 58f 55f
2:48 9 11 mph 1017.5mb 58f 55f
2:42 9 13 mph 1017.7mb 58f 54f
2:36 10 13 mph 1017.7mb 59f 54f
2:30 10 16 mph 1017.8mb 59f 54f
2:24 14 17 mph 1017.9mb 59f 53f
2:18 11 17 mph 1017.8mb 59f 54f
2:12 14 17 mph 1017.9mb 59f 53f
2:06 14 20 mph 1017.9mb 59f 53f
2:00 16 22 mph 1018mb 59f 53f
1:54 17 21 mph 1018mb 59f 54f
1:48 14 20 mph 1018mb 59f 54f
1:42 16 22 mph 1017.9mb 59f 54f
1:36 16 21 mph 1018mb 59f 54f
1:30 17 23 mph 1018.1mb 59f 54f
1:24 14 20 mph 1018mb 59f 55f
1:18 15 18 mph 1018mb 59f 55f
1:12 13 16 mph 1017.9mb 59f 55f
1:06 14 17 mph 1018.1mb 59f 55f
1:00 14 18 mph 1018.2mb 59f 55f
12:54 16 18 mph 1018.1mb 59f 55f
12:48 13 16 mph 1018.3mb 59f 55f
12:42 11 14 mph 1018.4mb 59f 55f
12:36 7 10 mph 1018.3mb 59f 55f
12:30 9 14 mph 1018.4mb 59f 55f
12:24 10 15 mph 1018.6mb 59f 55f
12:18 14 17 mph 1018.6mb 59f 55f
12:12 14 18 mph 1018.7mb 59f 55f
12:06 14 21 mph 1018.7mb 59f 55f
12:00 14 16 mph 1018.6mb 59f 55f
11:54 14 17 mph 1018.7mb 59f 54f
11:48 14 16 mph 1018.6mb 59f 54f
11:42 14 17 mph 1018.5mb 59f 55f
11:36 14 17 mph 1018.5mb 59f 55f
11:30 15 17 mph 1018.6mb 59f 55f
11:24 15 18 mph 1018.4mb 59f 55f
11:18 15 20 mph 1018.5mb 59f 55f
11:06 14 16 mph 1018.6mb 59f 55f
11:00 14 18 mph 1018.7mb 59f 55f
10:54 13 15 mph 1018.8mb 59f 55f
10:48 11 14 mph 1018.9mb 59f 55f
10:42 11 13 mph 1018.9mb 59f 55f
10:36 7 10 mph 1019mb 59f 55f
10:30 8 13 mph 1018.9mb 58f 54f
10:24 8 16 mph 1019.1mb 58f 54f
10:18 11 17 mph 1019.2mb 58f 54f
10:12 14 17 mph 1019.3mb 58f 54f
10:06 11 15 mph 1019.4mb 58f 54f
10:00 10 14 mph 1019.4mb 58f 53f
9:54 11 14 mph 1019.4mb 58f 53f
9:48 10 13 mph 1019.4mb 58f 53f
9:42 10 13 mph 1019.4mb 58f 53f
9:36 10 13 mph 1019.4mb 58f 53f
9:30 10 14 mph 1019.5mb 58f 53f
9:18 10 14 mph 1019.6mb 58f 52f
9:12 11 16 mph 1019.7mb 58f 52f
9:06 16 20 mph 1019.7mb 58f 52f
9:00 11 15 mph 1019.6mb 58f 52f
8:54 11 15 mph 1019.6mb 58f 53f
8:48 11 15 mph 1019.6mb 58f 53f
8:42 11 14 mph 1019.6mb 58f 53f
8:36 9 14 mph 1019.7mb 58f 52f
8:24 8 10 mph 1019.7mb 58f 52f
8:18 6 10 mph 1019.7mb 58f 52f
8:12 9 11 mph 1019.7mb 58f 52f
8:06 8 13 mph 1019.7mb 58f 51f
8:00 9 11 mph 1019.8mb 58f 51f
7:54 8 14 mph 1019.8mb 58f 51f
7:48 9 13 mph 1019.8mb 59f 52f
7:42 8 14 mph 1019.6mb 59f 52f
7:36 9 13 mph 1019.6mb 59f 52f
7:30 7 13 mph 1019.6mb 59f 52f
7:24 10 14 mph 1019.7mb 59f 52f
7:18 7 10 mph 1019.7mb 59f 52f
7:12 5 10 mph 1019.6mb 59f 52f
7:06 8 10 mph 1019.6mb 59f 52f
7:00 6 11 mph 1019.6mb 59f 52f
6:54 9 13 mph 1019.6mb 58f 52f
6:48 9 10 mph 1019.6mb 58f 52f
6:42 8 13 mph 1019.6mb 59f 52f
6:36 8 13 mph 1019.7mb 59f 52f
6:30 7 11 mph 1019.7mb 59f 52f
6:24 8 14 mph 1019.6mb 58f 52f
6:18 9 14 mph 1019.6mb 59f 52f
6:12 9 14 mph 1019.6mb 59f 52f
6:06 13 15 mph 1019.6mb 59f 52f
6:00 9 15 mph 1019.6mb 59f 52f
5:54 9 14 mph 1019.6mb 58f 52f
5:48 9 14 mph 1019.7mb 59f 52f
5:42 7 13 mph 1019.6mb 59f 52f
5:36 7 10 mph 1019.7mb 59f 52f
5:30 9 13 mph 1019.6mb 59f 52f
5:24 9 13 mph 1019.6mb 59f 52f
5:18 8 14 mph 1019.7mb 59f 52f
5:12 9 22 mph 1019.7mb 59f 52f
5:06 9 14 mph 1019.8mb 59f 52f
5:00 9 17 mph 1019.8mb 59f 52f
4:54 9 14 mph 1019.8mb 59f 52f
4:48 10 18 mph 1019.8mb 59f 52f
4:42 7 16 mph 1019.9mb 59f 52f
4:36 14 17 mph 1019.9mb 59f 52f
4:30 13 18 mph 1019.8mb 59f 52f
4:24 17 21 mph 1020mb 59f 52f
4:18 14 17 mph 1020mb 59f 52f
4:12 11 16 mph 1020mb 59f 52f
4:06 11 15 mph 1019.9mb 59f 52f
4:00 9 13 mph 1019.9mb 59f 52f
3:54 13 17 mph 1020mb 59f 52f
3:48 13 16 mph 1019.9mb 59f 52f
3:42 14 18 mph 1020mb 59f 52f
3:36 11 17 mph 1020mb 59f 52f
3:30 9 15 mph 1020mb 59f 52f
3:24 9 15 mph 1020.1mb 59f 52f
3:18 11 16 mph 1020.1mb 59f 52f
3:12 9 14 mph 1020.1mb 59f 52f
3:06 11 15 mph 1020.2mb 59f 52f
3:00 7 13 mph 1020.2mb 59f 52f
2:54 8 14 mph 1020.2mb 59f 52f
2:48 13 18 mph 1020.3mb 59f 52f
2:42 13 16 mph 1020.3mb 59f 52f
2:36 15 21 mph 1020.4mb 59f 52f
2:30 8 14 mph 1020.4mb 59f 52f
2:24 9 14 mph 1020.5mb 59f 52f
2:18 8 14 mph 1020.5mb 59f 52f
2:12 7 15 mph 1020.6mb 59f 52f
2:06 9 14 mph 1020.7mb 59f 52f
2:00 7 14 mph 1020.7mb 59f 52f
1:54 11 15 mph 1020.7mb 59f 52f
1:48 10 15 mph 1020.8mb 59f 52f
1:42 10 14 mph 1020.9mb 59f 52f
1:36 10 14 mph 1020.9mb 59f 52f
1:30 9 14 mph 1021mb 59f 52f
1:24 8 14 mph 1021mb 59f 52f
1:18 11 15 mph 1021mb 59f 52f
1:12 11 14 mph 1021mb 59f 52f
1:06 7 14 mph 1021mb 59f 52f
1:00 9 13 mph 1021mb 59f 52f
12:54 6 11 mph 1021mb 59f 52f
12:48 9 11 mph 1021mb 59f 52f
12:42 10 15 mph 1020.9mb 59f 52f
12:36 14 16 mph 1021mb 59f 52f
12:30 14 17 mph 1021mb 59f 52f
12:24 15 18 mph 1021mb 59f 52f
12:18 13 20 mph 1021.1mb 59f 52f
12:12 14 17 mph 1021.2mb 59f 52f
12:06 16 18 mph 1021.2mb 59f 52f
12:00 10 17 mph 1021.2mb 59f 52f
mar 05/23 11:54 13 18 mph 1021.1mb 59f 52f
11:48 13 16 mph 1021mb - -
11:42 14 16 mph 1021.1mb - -
11:36 14 16 mph 1021.1mb - -
11:30 15 18 mph 1021.3mb 59f 52f
11:24 16 22 mph 1021.3mb 59f 52f
11:18 16 22 mph 1021.3mb 59f 52f
11:12 14 20 mph 1021.3mb 59f 52f
11:06 16 23 mph 1021.4mb 59f 52f
11:00 16 23 mph 1021.3mb 59f 52f
10:54 15 18 mph 1021.3mb 59f 53f
10:48 14 18 mph 1021.2mb 59f 53f
10:42 16 18 mph 1021.1mb 59f 53f
10:36 13 22 mph 1021.1mb 59f 53f
10:30 13 17 mph 1021mb 59f 53f
10:24 11 17 mph 1020.9mb 59f 53f
10:18 14 18 mph 1020.9mb 59f 53f
10:12 17 24 mph 1020.9mb 59f 53f
10:06 18 24 mph 1020.8mb 59f 53f
10:00 18 24 mph 1020.8mb 59f 53f
9:54 13 17 mph 1020.7mb 59f 53f
9:48 9 13 mph 1020.6mb 59f 53f
9:42 9 13 mph 1020.4mb 59f 53f
9:36 10 18 mph 1020.4mb 59f 53f
9:30 11 14 mph 1020.4mb 59f 53f
9:18 11 14 mph 1020.4mb 59f 53f
9:06 16 21 mph 1020.3mb 59f 54f
9:00 18 21 mph 1020.3mb 59f 54f
8:54 10 15 mph 1020.2mb 59f 54f
8:48 11 15 mph 1020.1mb 59f 54f
8:42 10 16 mph 1020.1mb 59f 54f
8:36 10 16 mph 1020.2mb 59f 54f
8:30 10 14 mph 1020.2mb 59f 54f
8:24 11 17 mph 1020.2mb 59f 54f
8:18 15 20 mph 1020.2mb 59f 54f
8:12 15 21 mph 1020.2mb 59f 54f
8:06 13 16 mph 1020.2mb 59f 55f
8:00 8 16 mph 1020.2mb 59f 55f
7:54 15 17 mph 1020.2mb 59f 55f
7:48 16 23 mph 1020.1mb 59f 55f
7:42 13 16 mph 1020.2mb 59f 55f
7:36 13 17 mph 1020.2mb 59f 55f
7:30 16 24 mph 1020.2mb 59f 55f
7:24 17 23 mph 1020.2mb 59f 55f
7:18 15 25 mph 1020.3mb 59f 55f
7:12 18 24 mph 1020.2mb 59f 55f
7:06 14 17 mph 1020.2mb 59f 55f
7:00 14 23 mph 1020.1mb 59f 55f
6:54 18 22 mph 1020.1mb 59f 55f
6:48 14 17 mph 1020.1mb 59f 55f
6:42 14 17 mph 1020.1mb 59f 55f
6:36 14 17 mph 1020.1mb 59f 55f
6:30 15 17 mph 1020.1mb 59f 55f
6:24 14 20 mph 1020mb 59f 55f
6:18 13 16 mph 1020mb 58f 55f
6:12 14 18 mph 1020mb 58f 55f
6:06 11 14 mph 1019.9mb 58f 56f
6:00 14 16 mph 1019.9mb 58f 56f
5:54 13 18 mph 1020mb 58f 56f
5:48 15 18 mph 1020mb 58f 56f
5:42 14 18 mph 1020mb 58f 56f
5:36 14 17 mph 1020mb 58f 56f
5:30 11 20 mph 1020mb 58f 56f
5:24 14 17 mph 1020.1mb 58f 56f
5:18 7 17 mph 1020.1mb 58f 56f
5:12 13 17 mph 1020.1mb 58f 56f
5:06 13 16 mph 1020.1mb 58f 56f
5:00 11 16 mph 1020.2mb 58f 56f
4:54 14 18 mph 1020.2mb 58f 56f
4:48 15 17 mph 1020.2mb 58f 56f
4:42 10 13 mph 1020.2mb 58f 55f
4:36 9 14 mph 1020.3mb 58f 56f
4:30 8 13 mph 1020.3mb 58f 56f
4:24 10 14 mph 1020.4mb 58f 56f
4:18 9 15 mph 1020.5mb 59f 56f
4:12 13 17 mph 1020.5mb 59f 56f
4:06 13 17 mph 1020.5mb 59f 56f
4:00 14 17 mph 1020.6mb 59f 56f
3:54 11 15 mph 1020.6mb 59f 56f
3:48 9 16 mph 1020.5mb 59f 57f
3:42 13 17 mph 1020.5mb 59f 56f
3:36 17 20 mph 1020.5mb 59f 56f
3:30 15 20 mph 1020.5mb 59f 55f
3:24 14 17 mph 1020.3mb 59f 56f
3:18 15 20 mph 1020.3mb 60f 56f
3:12 17 22 mph 1020.3mb 61f 56f
3:06 17 20 mph 1020.3mb 60f 56f
2:54 18 21 mph 1020.1mb 60f 56f
2:48 14 20 mph 1020.2mb 60f 56f
2:42 16 20 mph 1020.1mb 59f 56f
2:36 15 18 mph 1020.2mb 59f 56f
2:30 16 18 mph 1020.2mb 58f 56f
2:24 14 17 mph 1020.2mb 58f 57f
2:18 9 13 mph 1020mb 58f 57f
2:12 10 13 mph 1019.9mb 58f 56f
2:06 11 14 mph 1020mb 58f 56f
2:00 10 11 mph 1019.9mb 58f 57f
1:54 7 9 mph 1019.9mb 58f 57f
1:48 7 13 mph 1019.9mb 59f 57f
1:42 13 14 mph 1020.1mb 59f 56f
1:36 10 15 mph 1020.1mb 59f 57f
1:30 10 11 mph 1020mb 59f 57f
1:24 13 14 mph 1020.1mb 59f 56f
1:18 10 14 mph 1020mb 59f 56f
1:12 13 14 mph 1020mb 60f 56f
1:06 11 15 mph 1019.9mb 60f 56f
1:00 10 16 mph 1019.9mb 60f 57f
12:54 11 16 mph 1019.9mb 60f 57f
12:48 13 16 mph 1019.9mb 60f 57f
12:36 13 17 mph 1019.8mb 60f 57f
12:30 14 18 mph 1019.7mb 60f 57f
12:24 17 20 mph 1019.7mb 60f 56f
12:18 16 18 mph 1019.6mb 60f 57f
12:12 16 20 mph 1019.6mb 60f 57f
12:06 15 18 mph 1019.5mb 60f 57f
12:00 16 18 mph 1019.4mb 60f 56f
11:48 15 18 mph 1019.2mb 60f 57f
11:42 9 15 mph 1019.1mb 60f 59f
11:36 14 17 mph 1019.1mb 60f 58f
11:30 11 17 mph 1018.9mb 60f 58f
11:24 15 18 mph 1018.9mb 60f 57f
11:18 15 18 mph 1018.8mb 60f 57f
11:12 15 17 mph 1018.8mb 60f 57f
11:06 16 18 mph 1018.8mb 59f 57f
11:00 15 17 mph 1018.7mb 59f 57f
10:54 13 15 mph 1018.6mb 59f 57f
10:48 11 13 mph 1018.5mb 59f 58f
10:42 8 13 mph 1018.5mb 59f 58f
10:36 11 14 mph 1018.5mb 59f 58f
10:30 10 13 mph 1018.5mb 59f 58f
10:24 8 10 mph 1018.5mb 59f 58f
10:18 8 10 mph 1018.3mb 59f 58f
10:12 8 9 mph 1018.3mb 59f 58f
10:06 7 8 mph 1018.3mb 59f 58f
10:00 7 9 mph 1018.3mb 59f 58f
9:54 9 10 mph 1018.3mb 59f 58f
9:48 8 10 mph 1018.3mb 59f 58f
9:42 9 10 mph 1018.3mb 59f 57f
9:36 8 9 mph 1018.2mb 59f 57f
9:30 7 8 mph 1018.3mb 59f 57f
9:24 7 8 mph 1018.3mb 59f 57f
9:18 6 7 mph 1018.3mb 59f 56f
9:12 5 6 mph 1018.3mb 59f 56f
9:06 3 5 mph 1018.2mb 59f 56f
9:00 3 5 mph 1018.3mb 59f 56f
8:54 2 5 mph 1018.3mb 59f 56f
8:48 5 6 mph 1018.3mb 59f 56f
8:42 5 6 mph 1018.3mb 59f 56f
8:36 2 3 mph 1018.3mb 59f 57f
8:30  -  3 mph 1018.2mb 59f 57f
8:24 2 2 mph 1018.3mb 59f 57f
8:18 1 2 mph 1018.2mb 59f 57f
8:12  -  2 mph 1018.1mb 59f 56f
8:06 2 3 mph 1018.2mb 59f 56f
8:00 2 3 mph 1018.3mb 59f 56f
7:54 2 3 mph 1018.3mb 59f 56f
7:48 1 2 mph 1018.2mb 59f 56f
7:42 2 3 mph 1018.1mb 59f 55f
7:36 1 2 mph 1018.1mb 59f 55f
7:30  -  2 mph 1018.1mb 59f 55f
7:24 2 2 mph 1018.1mb 59f 55f
7:12  -  1 mph 1018.1mb 59f 55f
7:00 1 3 mph 1018mb 59f 55f
6:54 1 3 mph 1018mb 59f 55f
6:48 1 3 mph 1018mb 59f 55f
6:42 2 5 mph 1017.9mb 59f 55f
6:36 5 6 mph 1017.8mb 59f 55f
6:30 3 5 mph 1017.8mb 59f 54f
6:24 1 2 mph 1017.7mb 59f 54f
6:18 1 3 mph 1017.7mb 59f 54f
6:12 2 3 mph 1017.6mb 59f 54f
6:06 3 6 mph 1017.4mb 59f 54f
6:00 5 5 mph 1017.3mb 59f 54f
5:54 2 5 mph 1017.4mb 59f 54f
5:48 2 3 mph 1017.4mb 59f 54f
5:42 2 5 mph 1017.4mb 59f 54f
5:36 5 6 mph 1017.2mb 59f 54f
5:30 2 3 mph 1017.2mb 59f 54f
5:24 2 2 mph 1017.2mb 59f 54f
5:18 2 3 mph 1017.2mb 59f 55f
5:12 3 5 mph 1017.2mb 59f 54f
5:06 2 3 mph 1017.2mb 59f 55f
5:00 2 2 mph 1017.1mb 59f 55f
4:54 2 2 mph 1017.2mb 59f 55f
4:48 2 2 mph 1017.2mb 59f 55f
4:42 1 2 mph 1017.2mb 59f 55f
4:36  -  1 mph 1017.2mb 58f 55f
4:30  -  1 mph 1017.2mb 59f 55f
4:24 1 2 mph 1017.2mb 58f 55f
4:18 1 1 mph 1017.1mb 58f 55f
4:12 1 2 mph 1017.1mb 58f 55f
4:06 2 3 mph 1017.1mb 58f 55f
4:00 1 2 mph 1017mb 58f 55f
3:54  -  2 mph 1017mb 58f 55f
3:48 1 3 mph 1017mb 58f 55f
3:42 3 5 mph 1017mb 59f 56f
3:36 5 6 mph 1016.9mb 58f 56f
3:30 2 2 mph 1016.9mb 59f 56f
3:24 1 2 mph 1017mb 59f 56f
3:18  -  2 mph 1017mb 59f 56f
3:12 1 2 mph 1016.9mb 59f 56f
3:06 1 1 mph 1016.9mb 59f 56f
3:00  -  2 mph 1016.9mb 59f 56f
2:54 1 3 mph 1016.9mb 59f 56f
2:48 3 5 mph 1016.9mb 59f 56f
2:42 2 5 mph 1016.8mb 59f 56f
2:36 5 6 mph 1016.8mb 59f 56f
2:30 2 3 mph 1016.8mb 59f 57f
2:24 2 5 mph 1016.9mb 59f 57f
2:12 6 6 mph 1016.9mb 59f 57f
2:00 5 7 mph 1016.8mb 59f 57f
1:48 3 3 mph 1016.9mb 59f 57f
1:42 3 3 mph 1017mb 59f 58f
1:36 1 3 mph 1017mb 59f 58f
1:30 3 5 mph 1016.9mb 59f 58f
1:24 2 3 mph 1016.9mb 59f 58f
1:12  -  2 mph 1017mb 59f 58f
1:06 1 2 mph 1016.9mb 59f 59f
1:00 1 6 mph 1016.9mb 59f 59f
12:54 7 9 mph 1016.8mb 59f 59f
12:48 7 9 mph 1016.9mb 59f 59f
12:42 8 10 mph 1016.9mb 59f 59f
12:36 8 10 mph 1016.9mb 59f 58f
12:30 10 14 mph 1017mb 59f 58f
12:24 11 14 mph 1017mb 59f 58f
12:18 10 11 mph 1016.9mb 59f 58f
12:12 8 9 mph 1016.8mb 59f 59f
12:06 6 8 mph 1016.8mb 59f 59f
12:00 2 6 mph 1016.8mb 59f 59f
lun 05/22 11:54 3 5 mph 1016.8mb 59f 59f
11:48 2 5 mph 1016.7mb 59f -
11:42 2 3 mph 1016.7mb 59f -
11:36 3 3 mph 1016.7mb 59f -
11:30 2 3 mph 1016.7mb 59f 60f
11:24 2 2 mph 1016.7mb 59f 60f
11:18  -  2 mph 1016.7mb 59f 61f
11:12 1 2 mph 1016.7mb 59f 61f
11:06 2 3 mph 1016.8mb 59f 60f
11:00 2 3 mph 1016.8mb 59f 61f
10:54 2 2 mph 1016.8mb 59f 61f
10:48 2 3 mph 1016.8mb 59f 60f
10:42 1 6 mph 1016.9mb 59f 60f
10:36 2 5 mph 1016.9mb 59f 60f
10:30 1 2 mph 1016.8mb 59f 61f
10:24 2 3 mph 1016.8mb 59f 61f
10:18 1 2 mph 1016.8mb 59f 62f
10:12  -  5 mph 1016.8mb 59f 63f
10:06 5 5 mph 1016.9mb 59f 63f
10:00 1 3 mph 1016.9mb 59f 65f
9:54 1 3 mph 1016.9mb 59f 67f
9:48 2 3 mph 1017mb 59f 67f
9:42 1 2 mph 1017mb 59f 67f
9:36 2 5 mph 1016.9mb 59f 67f
9:30 2 3 mph 1016.9mb 59f 66f
9:24 2 5 mph 1016.8mb 59f 68f
9:18 3 5 mph 1016.8mb 59f 67f
9:12 5 8 mph 1016.8mb 59f 67f
9:06 6 7 mph 1016.8mb 59f 69f
9:00 5 9 mph 1016.7mb 59f 69f
8:54 5 9 mph 1016.7mb 59f 68f
8:48 6 8 mph 1016.7mb 59f 69f
8:42 3 5 mph 1016.6mb 59f 70f
8:36 2 8 mph 1016.6mb 59f 71f
8:30 5 8 mph 1016.6mb 60f 72f
8:24 6 8 mph 1016.5mb 60f 73f
8:18 7 8 mph 1016.6mb 59f 72f
8:12 7 11 mph 1016.6mb 59f 73f
8:06 7 11 mph 1016.6mb 59f 74f
8:00 2 3 mph 1016.6mb 59f 74f
7:54 2 6 mph 1016.6mb 59f 73f
7:48 6 8 mph 1016.6mb 59f 73f
7:42 7 14 mph 1016.5mb 59f 73f
7:36 9 13 mph 1016.5mb 59f 75f
7:30 5 8 mph 1016.4mb 59f 76f
7:24 6 8 mph 1016.4mb 59f 75f
7:18 6 9 mph 1016.5mb 59f 75f
7:12  -  5 mph 1016.4mb 59f 74f
7:06 5 5 mph 1016.4mb 59f 73f
7:00 1 3 mph 1016.4mb 59f 76f
6:54 2 3 mph 1016.4mb 59f 74f
6:48 2 5 mph 1016.4mb 60f 74f
6:42 2 6 mph 1016.4mb 60f 71f
6:36 2 5 mph 1016.4mb 60f 73f
6:30 1 5 mph 1016.4mb 60f 74f
6:24 3 6 mph 1016.3mb 60f 71f
6:18 3 6 mph 1016.3mb 60f 72f
6:12 5 8 mph 1016.3mb 60f 74f
6:06 3 6 mph 1016.3mb 60f 68f
6:00 2 7 mph 1016.3mb 60f 71f
5:54 6 9 mph 1016.3mb 60f 72f
5:48 8 10 mph 1016.4mb 60f 70f
5:42 9 11 mph 1016.4mb 60f 71f
5:36 10 11 mph 1016.4mb 60f 71f
5:30 10 13 mph 1016.5mb 60f 71f
5:24 11 13 mph 1016.4mb 60f 71f
5:18 11 11 mph 1016.3mb 60f 73f
5:12 10 11 mph 1016.3mb 60f 71f
5:06 9 11 mph 1016.3mb 60f 73f
5:00 10 11 mph 1016.4mb 59f 71f
4:54 7 10 mph 1016.5mb 59f 69f
4:48 5 8 mph 1016.6mb 59f 70f
4:42 5 7 mph 1016.6mb 59f 72f
4:36 6 13 mph 1016.6mb 59f 75f
4:30 3 5 mph 1016.6mb 59f 74f
4:24 5 6 mph 1016.7mb 59f 75f
4:18 5 6 mph 1016.8mb 59f 76f
4:12 2 5 mph 1016.8mb 59f 75f
4:06 2 6 mph 1016.9mb 59f 74f
4:00 6 7 mph 1016.9mb 59f 73f
3:54 5 10 mph 1016.9mb 59f 73f
3:48 10 11 mph 1017mb 58f 72f
3:42 9 15 mph 1017.1mb 58f 70f
3:36 10 14 mph 1017mb 58f 70f
3:30 3 11 mph 1017mb 58f 70f
3:24 9 11 mph 1017mb 58f 70f
3:18 10 13 mph 1017.1mb 58f 69f
3:12 3 11 mph 1017.1mb 58f 67f
3:06 9 14 mph 1017.2mb 58f 67f
3:00 13 14 mph 1017.3mb 58f 67f
2:54 11 13 mph 1017.3mb 57f 68f
2:48 5 7 mph 1017.3mb 57f 69f
2:42 2 3 mph 1017.3mb 58f 71f
2:36 1 3 mph 1017.2mb 58f 72f
2:30  -  3 mph 1017.2mb 58f 74f
2:24 2 3 mph 1017.2mb 58f 74f
2:18 2 2 mph 1017.2mb 58f 74f
2:12 1 3 mph 1017.3mb 58f 74f
2:06 2 3 mph 1017.3mb 58f 73f
2:00 2 3 mph 1017.3mb 58f 73f
1:54 2 3 mph 1017.3mb 58f 73f
1:48 2 3 mph 1017.4mb 58f 73f
1:42 1 2 mph 1017.4mb 58f 73f
1:36  -  2 mph 1017.6mb 58f 73f
1:30 1 2 mph 1017.6mb 58f 72f
1:24  -  2 mph 1017.7mb 58f 71f
1:18 1 2 mph 1017.7mb 58f 71f
1:12 1 2 mph 1017.7mb 58f 71f
1:06  -  1 mph 1017.8mb 58f 70f
1:00  -  1 mph 1017.8mb 58f 70f
12:54  -  2 mph 1017.9mb 58f 69f
12:48 2 3 mph 1017.8mb 58f 69f
12:42 2 3 mph 1017.9mb 58f 71f
12:36  -  1 mph 1018mb 58f 71f
12:30 1 1 mph 1018.1mb 58f 68f
12:24 1 2 mph 1018.1mb 58f 66f
12:18 1 2 mph 1018.2mb 58f 64f
12:12 1 3 mph 1018.3mb 58f 64f
12:06 3 3 mph 1018.4mb 58f 64f
12:00 2 2 mph 1018.4mb 58f 64f
11:54 2 2 mph 1018.4mb 58f 65f
11:48 1 2 mph 1018.5mb 58f 64f
11:42 1 2 mph 1018.6mb 58f 64f
11:36 1 2 mph 1018.6mb 59f 65f
11:30  -  1 mph 1018.7mb 58f 66f
11:24  -  1 mph 1018.7mb 58f 66f
11:18 1 2 mph 1018.9mb 58f 65f
11:12  -  1 mph 1018.9mb 58f 66f
11:06  -  3 mph 1018.9mb 58f 65f
11:00 1 2 mph 1019mb 58f 64f
10:54 1 3 mph 1019mb 58f 64f
10:48 1 2 mph 1019.1mb 58f 63f
10:42  -  2 mph 1019.3mb 58f 64f
10:36 1 2 mph 1019.3mb 58f 63f
10:30  -  2 mph 1019.2mb 58f 63f
10:24 1 5 mph 1019.3mb 58f 62f
10:18 2 3 mph 1019.4mb 58f 62f
10:12  -  3 mph 1019.3mb 58f 61f
10:06 3 6 mph 1019.3mb 58f 59f
10:00 5 7 mph 1019.3mb 58f 59f
9:54 6 8 mph 1019.3mb 58f 60f
9:48 5 6 mph 1019.3mb 58f 63f
9:42  -  2 mph 1019.2mb 58f 66f
9:36  -  2 mph 1019.3mb 58f 65f
9:30  -  1 mph 1019.2mb 58f 66f
9:24  -  1 mph 1019.1mb 58f 66f
9:18  -  5 mph 1019.1mb 58f 64f
9:12 5 7 mph 1019.1mb 58f 63f
9:06 6 7 mph 1019.1mb 58f 63f
9:00 5 7 mph 1019mb 58f 63f
8:54 7 8 mph 1019.1mb 58f 63f
8:48 6 8 mph 1019.1mb 58f 63f
8:42 6 8 mph 1019.1mb 58f 62f
8:36 7 9 mph 1019.1mb 58f 61f
8:30 7 9 mph 1019.1mb 58f 61f
8:24 7 8 mph 1019.2mb 58f 61f
8:18 7 10 mph 1019.2mb 58f 60f
8:12 7 8 mph 1019.1mb 58f 60f
8:06 6 8 mph 1019.1mb 58f 60f
7:54 6 7 mph 1019.2mb 58f 58f
7:42 5 7 mph 1019.2mb 58f 57f
7:36 5 7 mph 1019.2mb 58f 57f
7:30 3 7 mph 1019.2mb 58f 57f
7:18 6 9 mph 1019.2mb 58f 57f
7:12 7 9 mph 1019.2mb 58f 57f
7:06 6 8 mph 1019.2mb 58f 57f
7:00 6 9 mph 1019.2mb 58f 56f
6:54 7 9 mph 1019.2mb 58f 56f
6:48 8 9 mph 1019.3mb 58f 56f
6:30 7 9 mph 1019.3mb 58f 56f
6:24 7 9 mph 1019.3mb 58f 57f
6:18 8 10 mph 1019.3mb 58f 57f
6:12 9 11 mph 1019.3mb 58f 57f
6:06 8 10 mph 1019.3mb 58f 57f
6:00 6 8 mph 1019.3mb 58f 56f
5:54 7 10 mph 1019.2mb 58f 56f
5:48 8 10 mph 1019.2mb 58f 57f
5:42 8 9 mph 1019.2mb 58f 57f
5:36 8 9 mph 1019.2mb 58f 57f
5:30 6 7 mph 1019.2mb 58f 57f
5:24 6 7 mph 1019.2mb 58f 56f
5:18 6 7 mph 1019.2mb 58f 56f
5:12 6 7 mph 1019.2mb 58f 57f
5:06 5 8 mph 1019.2mb 58f 57f
5:00 8 9 mph 1019.2mb 58f 57f
4:54 8 10 mph 1019.2mb 58f 57f
4:48 8 10 mph 1019.3mb 58f 57f
4:42 8 10 mph 1019.2mb 58f 57f
4:36 8 9 mph 1019.2mb 57f 56f
4:30 6 7 mph 1019.3mb 58f 56f
4:24 3 3 mph 1019.4mb 58f 56f
4:18 3 5 mph 1019.5mb 58f 56f
4:12 1 3 mph 1019.5mb 58f 56f
4:06 1 5 mph 1019.5mb 58f 56f
4:00 3 5 mph 1019.6mb 58f 56f
3:54 3 5 mph 1019.7mb 58f 55f
3:48 1 3 mph 1019.8mb 58f 55f
3:42 2 7 mph 1019.8mb 58f 55f
3:36 2 8 mph 1019.8mb 58f 55f
3:30 6 8 mph 1019.7mb 58f 55f
3:24 6 7 mph 1019.8mb 58f 56f
3:18 3 5 mph 1019.8mb 58f 56f
3:12  -  1 mph 1019.9mb 58f 56f
3:06  -  1 mph 1020mb 58f 56f
3:00  -  1 mph 1020mb 58f 56f
2:54  -  1 mph 1020mb 58f 56f
2:48 2 2 mph 1020mb 58f 56f
2:42 1 2 mph 1020mb 58f 56f
2:36 2 2 mph 1019.9mb 58f 56f
2:30  -  2 mph 1019.8mb 58f 56f
2:24 2 3 mph 1019.8mb 58f 56f
2:18 2 3 mph 1019.9mb 58f 56f
2:12 2 2 mph 1019.9mb 58f 57f
2:06  -  2 mph 1019.9mb 58f 57f
2:00  -  3 mph 1019.9mb 58f 57f
1:54 3 5 mph 1019.9mb 58f 57f
1:48 3 7 mph 1019.9mb 58f 57f
1:42 5 7 mph 1020mb 58f 57f
1:36 2 6 mph 1020mb 58f 57f
1:30 5 7 mph 1020mb 58f 57f
1:24 6 7 mph 1020mb 58f 58f
1:18 6 7 mph 1020mb 58f 58f
1:12 6 7 mph 1020.1mb 58f 58f
1:06 5 7 mph 1020.1mb 58f 58f
1:00 5 7 mph 1020.1mb 58f 58f
12:54 6 7 mph 1020.1mb 58f 58f
12:48 3 5 mph 1020.1mb 58f 58f
12:42 2 5 mph 1020.2mb 58f 58f
12:36 3 5 mph 1020.2mb 58f 58f
12:30 2 2 mph 1020.2mb 58f 58f
12:24  -  2 mph 1020.2mb 58f 58f
12:18 2 2 mph 1020.2mb 58f 58f
12:12  -  2 mph 1020.2mb 58f 59f
12:06 1 5 mph 1020.2mb 58f 59f
12:00 3 5 mph 1020.2mb 58f 59f
dom 05/21 11:54  -  2 mph 1020.3mb 58f 59f
11:48  -  1 mph 1020.2mb 58f 59f
11:42  -  2 mph 1020.3mb 58f 59f
11:36 2 2 mph 1020.3mb 58f 59f
11:30  -  5 mph 1020.4mb 58f 59f
11:24 1 2 mph 1020.4mb 58f 59f
11:18 2 3 mph 1020.4mb 58f 59f
11:12  -  2 mph 1020.5mb 58f 59f
11:06  -  3 mph 1020.5mb 58f 59f
11:00 2 6 mph 1020.5mb 58f 59f
10:54 6 6 mph 1020.6mb 58f 59f
10:48 3 5 mph 1020.6mb 58f 59f
10:42 3 3 mph 1020.5mb 58f 60f
10:36 2 3 mph 1020.5mb 58f 59f
10:30 1 2 mph 1020.5mb 58f 60f
10:24 1 2 mph 1020.4mb 58f 61f
10:18 1 2 mph 1020.3mb 58f 62f
10:12  -  2 mph 1020.2mb 58f 62f
10:06 1 2 mph 1020.2mb 58f 62f
10:00  -  1 mph 1020.3mb 58f 62f
9:54 1 2 mph 1020.3mb 58f 62f
9:48 1 2 mph 1020.2mb 58f 63f
9:42 2 6 mph 1020.1mb 58f 62f
9:36 6 7 mph 1020.2mb 58f 63f
9:30 1 2 mph 1020.1mb 58f 65f
9:24  -  2 mph 1020mb 58f 65f
9:18 2 2 mph 1019.9mb 58f 65f
9:12 1 2 mph 1019.8mb 58f 65f
9:06 1 2 mph 1019.8mb 58f 66f
9:00 2 2 mph 1019.8mb 58f 67f
8:54 1 2 mph 1019.7mb 58f 67f
8:48 2 3 mph 1019.7mb 58f 68f
8:42 1 2 mph 1019.7mb 58f 67f
8:36 1 5 mph 1019.7mb 58f 67f
8:30 5 6 mph 1019.6mb 58f 67f
8:24 6 8 mph 1019.6mb 58f 69f
8:18 6 8 mph 1019.6mb 58f 68f
8:12 7 10 mph 1019.7mb 59f 67f
8:06 9 10 mph 1019.7mb 59f 69f
8:00 8 13 mph 1019.7mb 59f 69f
7:54 8 10 mph 1019.7mb 59f 69f
7:48 8 13 mph 1019.7mb 59f 70f
7:42 10 14 mph 1019.6mb 59f 69f
7:36 9 14 mph 1019.5mb 58f 70f
7:30 7 11 mph 1019.5mb 58f 71f
7:24 3 9 mph 1019.4mb 58f 71f
7:18 2 6 mph 1019.4mb 58f 71f
7:12 7 16 mph 1019.4mb 58f 70f
7:06 8 15 mph 1019.3mb 58f 71f
7:00 5 9 mph 1019.4mb 58f 71f
6:54 5 6 mph 1019.3mb 58f 69f
6:48 3 7 mph 1019.4mb 58f 68f
6:42 6 10 mph 1019.4mb 58f 70f
6:36 7 10 mph 1019.4mb 58f 71f
6:30 8 17 mph 1019.4mb 58f 71f
6:24 8 18 mph 1019.4mb 59f 70f
6:18 13 18 mph 1019.4mb 59f 71f
6:12 7 21 mph 1019.5mb 59f 71f
6:06 10 17 mph 1019.6mb 59f 71f
6:00 10 16 mph 1019.5mb 59f 71f
5:54 10 17 mph 1019.6mb 59f 71f
5:48 5 8 mph 1019.6mb 59f 69f
5:42 3 7 mph 1019.7mb 59f 69f
5:36 3 8 mph 1019.8mb 59f 67f
5:30 6 8 mph 1019.9mb 59f 67f
5:24 3 6 mph 1020mb 59f 68f
5:18 5 6 mph 1020mb 59f 67f
5:12 2 6 mph 1020mb 59f 68f
5:06 3 8 mph 1020mb 59f 67f
5:00 6 10 mph 1020mb 59f 67f
4:54 10 11 mph 1019.9mb 59f 67f
4:48 10 14 mph 1019.9mb 58f 66f
4:42 9 13 mph 1020mb 58f 67f
4:36 11 14 mph 1019.9mb 59f 67f
4:30 11 13 mph 1020mb 59f 67f
4:24 11 13 mph 1020.1mb 59f 66f
4:18 10 13 mph 1020.1mb 58f 66f
4:12 13 14 mph 1020.2mb 58f 65f
4:06 10 11 mph 1020.2mb 58f 65f
4:00 9 11 mph 1020.2mb 58f 65f
3:54 11 13 mph 1020.2mb 58f 65f
3:48 5 7 mph 1020.3mb 58f 65f
3:42 2 3 mph 1020.5mb 58f 67f
3:36 2 5 mph 1020.5mb 58f 67f
3:30 2 3 mph 1020.6mb 58f 67f
3:24 2 5 mph 1020.7mb 58f 67f
3:18 2 6 mph 1020.7mb 58f 67f
3:12 3 6 mph 1020.8mb 57f 65f
3:06 3 6 mph 1020.9mb 57f 65f
3:00 2 6 mph 1021.1mb 57f 65f
2:54 2 5 mph 1021.1mb 57f 64f
2:48 1 3 mph 1021.2mb 57f 64f
2:42 1 6 mph 1021.2mb 57f 64f
2:36  -  2 mph 1021.2mb 57f 65f
2:30 3 3 mph 1021.2mb 57f 65f
2:24 2 3 mph 1021.2mb 57f 65f
2:18 2 3 mph 1021.3mb 57f 66f
2:12 2 3 mph 1021.3mb 57f 65f
2:06  -  3 mph 1021.4mb 57f 65f
2:00  -  2 mph 1021.5mb 57f 65f
1:54 2 3 mph 1021.6mb 57f 63f
1:48 1 2 mph 1021.6mb 57f 64f
1:42 1 2 mph 1021.6mb 57f 64f
1:36  -  1 mph 1021.6mb 56f 63f
1:30  -  3 mph 1021.6mb 56f 62f
1:24  -  2 mph 1021.7mb 56f 62f
1:18  -  2 mph 1021.7mb 56f 62f
1:12 1 2 mph 1021.8mb 56f 61f
1:06  -  2 mph 1021.8mb 56f 62f
1:00 2 2 mph 1021.8mb 57f 62f
12:54  -  2 mph 1021.9mb 57f 62f
12:48 2 3 mph 1022mb 57f 61f
12:42  -  1 mph 1022mb 57f 63f
12:36  -  1 mph 1022.1mb 57f 61f
12:30 1 2 mph 1022.1mb 57f 58f
12:24  -  1 mph 1022.2mb 56f 59f
12:18  -  1 mph 1022.3mb 56f 58f
12:12  -  2 mph 1022.3mb 56f 57f
12:06 2 2 mph 1022.4mb 56f 55f
12:00 1 2 mph 1022.4mb 56f 55f
11:54 2 3 mph 1022.5mb 56f 54f
11:48 2 3 mph 1022.6mb 56f 54f
11:42 2 3 mph 1022.5mb 56f 54f
11:36 2 3 mph 1022.6mb 56f 53f
11:30 3 5 mph 1022.6mb 56f 53f
11:24 5 5 mph 1022.6mb 56f 52f
11:18 5 6 mph 1022.6mb 56f 51f
11:12 5 5 mph 1022.7mb 56f 52f
11:06 3 5 mph 1022.7mb 56f 52f
11:00  -  2 mph 1022.7mb 57f 53f
10:54 2 2 mph 1022.8mb 57f 52f
10:48 1 2 mph 1022.8mb 57f 52f
10:42 1 3 mph 1022.8mb 57f 52f
10:36 2 3 mph 1022.8mb 57f 52f
10:30 2 3 mph 1022.8mb 57f 52f
10:24 2 3 mph 1022.8mb 57f 52f
10:18 3 3 mph 1022.8mb 57f 52f
10:12 2 3 mph 1022.8mb 57f 52f
10:06 2 5 mph 1022.8mb 57f 52f
10:00 3 5 mph 1022.8mb 57f 51f
9:54 3 5 mph 1022.8mb 57f 51f
9:48 2 3 mph 1022.9mb 57f 51f
9:42 2 3 mph 1022.9mb 57f 51f
9:36 1 3 mph 1022.8mb 57f 51f
9:30 1 5 mph 1022.8mb 57f 51f
9:24 3 3 mph 1022.8mb 57f 51f
9:18 3 5 mph 1022.7mb 57f 51f
9:12 5 5 mph 1022.7mb 57f 51f
9:06 5 7 mph 1022.6mb 57f 51f
9:00 1 7 mph 1022.6mb 57f 51f